Time;durP1;ratioP1;P1;durP2;ratioP2;P2;SDS_P1;SDS_P2;PMS_P1;PMS_P2;Temp;Humidity;BMP_temperature;BMP_pressure;BME280_temperature;BME280_humidity;BME280_pressure;Samples;Min_cycle;Max_cycle;Signal;HPM_P1;HPM_P2
2022/04/03 00:02:24;;;;;;;5.50;2.40;;;21.60;60.60;;;;;;4939400;29;20209;-59
2022/04/03 00:04:54;;;;;;;3.42;2.50;;;21.70;60.60;;;;;;4952000;28;20286;-59
2022/04/03 00:07:25;;;;;;;5.43;2.42;;;21.70;60.60;;;;;;4951940;28;20628;-59
2022/04/03 00:09:55;;;;;;;3.90;2.17;;;21.70;60.50;;;;;;4951851;28;20248;-59
2022/04/03 00:12:26;;;;;;;3.78;2.05;;;21.70;60.50;;;;;;4935811;28;20227;-59
2022/04/03 00:14:56;;;;;;;5.10;2.22;;;21.80;60.50;;;;;;4933038;29;20671;-59
2022/04/03 00:17:28;;;;;;;3.83;2.05;;;21.80;60.50;;;;;;4933081;29;20286;-59
2022/04/03 00:19:59;;;;;;;3.00;2.28;;;21.80;60.40;;;;;;4945628;29;20285;-59
2022/04/03 00:22:30;;;;;;;3.28;2.03;;;21.90;60.60;;;;;;4951935;28;20543;-59
2022/04/03 00:25:01;;;;;;;4.28;1.90;;;21.90;60.60;;;;;;4951634;28;20655;-59
2022/04/03 00:27:31;;;;;;;5.57;2.40;;;21.90;60.40;;;;;;4950478;28;20203;-59
2022/04/03 00:30:02;;;;;;;3.03;2.08;;;21.90;60.40;;;;;;4951421;28;20201;-59
2022/04/03 00:32:34;;;;;;;3.03;1.90;;;22.00;60.40;;;;;;4951450;28;20298;-59
2022/04/03 00:35:04;;;;;;;6.20;2.30;;;22.00;60.40;;;;;;4951615;28;20199;-59
2022/04/03 00:37:35;;;;;;;4.78;2.30;;;22.00;60.30;;;;;;4951714;28;20294;-59
2022/04/03 00:40:06;;;;;;;3.15;1.83;;;22.00;60.30;;;;;;4954927;28;20287;-59
2022/04/03 00:42:37;;;;;;;2.80;1.92;;;22.00;60.30;;;;;;4954277;28;20629;-59
2022/04/03 00:45:09;;;;;;;3.80;2.25;;;22.00;60.30;;;;;;4955086;28;20278;-59
2022/04/03 00:47:42;;;;;;;3.42;2.17;;;22.10;60.30;;;;;;4954877;28;20209;-59
2022/04/03 00:50:15;;;;;;;3.17;2.00;;;22.10;60.30;;;;;;4955136;28;20343;-59
2022/04/03 00:52:45;;;;;;;3.40;1.90;;;22.10;60.10;;;;;;4955131;29;20289;-58
2022/04/03 00:57:47;;;;;;;3.30;1.92;;;22.20;60.10;;;;;;4947551;28;20239;-59
2022/04/03 01:00:18;;;;;;;2.58;2.00;;;22.20;60.00;;;;;;4935377;29;20215;-63
2022/04/03 01:02:50;;;;;;;2.65;1.92;;;22.20;60.00;;;;;;4935394;29;20286;-62
2022/04/03 01:05:21;;;;;;;2.53;1.80;;;22.30;60.00;;;;;;4935446;29;20206;-63
2022/04/03 01:07:51;;;;;;;2.28;1.75;;;22.30;60.00;;;;;;4935556;29;20302;-56
2022/04/03 01:10:22;;;;;;;4.32;2.00;;;22.30;59.80;;;;;;4932113;29;20290;-64
2022/04/03 01:12:52;;;;;;;1.75;1.63;;;22.30;59.70;;;;;;4934943;29;20714;-61
2022/04/03 01:15:23;;;;;;;2.80;2.00;;;22.40;59.70;;;;;;4935682;29;20810;-63
2022/04/03 01:17:55;;;;;;;2.55;1.77;;;22.40;59.70;;;;;;4935754;29;20314;-64
2022/04/03 01:20:26;;;;;;;3.13;1.85;;;22.40;59.70;;;;;;4934937;29;20734;-60
2022/04/03 01:22:56;;;;;;;2.95;1.63;;;22.40;59.60;;;;;;4935046;29;20645;-60
2022/04/03 01:25:28;;;;;;;2.72;2.03;;;22.40;59.60;;;;;;4935127;29;20282;-62
2022/04/03 01:28:00;;;;;;;3.38;1.80;;;22.50;59.50;;;;;;4934269;29;20303;-63
2022/04/03 01:30:30;;;;;;;2.05;1.63;;;22.50;59.50;;;;;;4935004;29;20207;-60
2022/04/03 01:33:01;;;;;;;2.40;1.55;;;22.50;59.40;;;;;;4935201;29;20299;-59
2022/04/03 01:35:32;;;;;;;1.88;1.60;;;22.50;59.40;;;;;;4935531;29;20199;-57
2022/04/03 01:38:02;;;;;;;1.95;1.42;;;22.50;59.40;;;;;;4935166;29;20727;-62
2022/04/03 01:40:35;;;;;;;2.40;1.80;;;22.50;59.40;;;;;;4935331;29;20590;-62
2022/04/03 01:43:07;;;;;;;1.90;1.55;;;22.50;59.40;;;;;;4934813;29;20195;-61
2022/04/03 01:45:37;;;;;;;2.10;1.50;;;22.50;59.30;;;;;;4934900;29;20207;-58
2022/04/03 01:48:09;;;;;;;1.80;1.70;;;22.60;59.30;;;;;;4934728;29;20212;-62
2022/04/03 01:50:39;;;;;;;2.33;1.85;;;22.60;59.20;;;;;;4934723;29;20666;-61
2022/04/03 01:53:10;;;;;;;1.60;1.50;;;22.60;59.20;;;;;;4932986;29;20291;-64
2022/04/03 01:55:42;;;;;;;1.55;1.38;;;22.60;59.20;;;;;;4951185;23;20243;-58
2022/04/03 01:58:13;;;;;;;2.90;1.70;;;22.70;59.10;;;;;;4965908;28;20221;-60
2022/04/03 02:00:43;;;;;;;1.60;1.50;;;22.70;59.00;;;;;;4953899;28;20714;-59
2022/04/03 02:03:14;;;;;;;2.50;1.60;;;22.70;59.00;;;;;;4936569;28;20290;-58
2022/04/03 02:05:44;;;;;;;3.15;1.55;;;22.70;58.90;;;;;;4934819;29;20656;-58
2022/04/03 02:08:15;;;;;;;3.20;1.88;;;22.80;59.00;;;;;;4934770;29;20226;-61
2022/04/03 02:10:47;;;;;;;1.77;1.58;;;22.80;58.90;;;;;;4934590;29;20200;-60
2022/04/03 02:13:17;;;;;;;1.50;1.38;;;22.80;59.20;;;;;;4950997;29;20202;-61
2022/04/03 02:15:48;;;;;;;2.47;1.40;;;22.80;58.80;;;;;;4953986;28;20198;-57
2022/04/03 02:18:19;;;;;;;1.65;1.27;;;22.80;58.80;;;;;;4953615;28;20306;-57
2022/04/03 02:20:49;;;;;;;1.60;1.50;;;22.90;58.80;;;;;;4915463;29;20231;-58
2022/04/03 02:23:20;;;;;;;2.47;1.50;;;22.90;58.70;;;;;;4915316;29;20295;-57
2022/04/03 02:25:52;;;;;;;1.63;1.52;;;22.90;58.70;;;;;;4915918;29;20287;-59
2022/04/03 02:28:23;;;;;;;1.77;1.42;;;22.90;58.70;;;;;;4948365;28;20306;-59
2022/04/03 02:30:53;;;;;;;1.88;1.38;;;22.90;58.70;;;;;;4953425;28;20225;-56
2022/04/03 02:33:24;;;;;;;1.73;1.40;;;22.90;58.70;;;;;;4934577;28;20203;-57
2022/04/03 02:35:54;;;;;;;1.55;1.35;;;22.90;58.60;;;;;;4934108;29;20286;-58
2022/04/03 02:38:25;;;;;;;1.88;1.40;;;23.00;58.70;;;;;;4933824;29;20226;-57
2022/04/03 02:40:57;;;;;;;2.08;1.40;;;23.00;58.70;;;;;;4933620;29;20424;-58
2022/04/03 02:43:27;;;;;;;1.67;1.52;;;23.00;58.60;;;;;;4949669;29;20877;-58
2022/04/03 02:45:58;;;;;;;1.92;1.27;;;23.00;58.60;;;;;;4953127;28;20652;-58
2022/04/03 02:48:29;;;;;;;1.77;1.27;;;23.00;58.50;;;;;;4952791;28;20314;-57
2022/04/03 02:50:59;;;;;;;2.00;1.58;;;23.10;58.60;;;;;;4953062;28;20195;-58
2022/04/03 02:53:30;;;;;;;2.25;1.45;;;23.10;58.60;;;;;;4953136;28;20624;-57
2022/04/03 02:56:02;;;;;;;2.13;1.40;;;23.20;58.60;;;;;;4964405;23;20686;-62
2022/04/03 02:58:32;;;;;;;1.75;1.50;;;23.20;58.50;;;;;;4943016;28;20706;-63
2022/04/03 03:01:03;;;;;;;2.25;1.70;;;23.20;58.40;;;;;;4932521;29;20302;-62
2022/04/03 03:03:33;;;;;;;1.63;1.42;;;23.30;58.40;;;;;;4914399;29;20290;-61
2022/04/03 03:06:04;;;;;;;2.05;1.40;;;23.30;58.30;;;;;;4921763;29;20282;-61
2022/04/03 03:08:34;;;;;;;2.00;1.58;;;23.30;58.30;;;;;;4930323;29;20330;-64
2022/04/03 03:11:06;;;;;;;1.42;1.30;;;23.30;58.20;;;;;;4931459;29;20212;-63
2022/04/03 03:13:37;;;;;;;1.77;1.50;;;23.40;58.20;;;;;;4930425;29;20252;-59
2022/04/03 03:16:08;;;;;;;2.72;1.55;;;23.40;58.20;;;;;;4931723;29;20214;-63
2022/04/03 03:18:38;;;;;;;1.95;1.38;;;23.40;58.20;;;;;;4932025;29;20314;-63
2022/04/03 03:21:09;;;;;;;2.15;1.40;;;23.40;58.10;;;;;;4931693;29;20219;-62
2022/04/03 03:23:40;;;;;;;2.42;1.60;;;23.50;58.10;;;;;;4931456;29;20263;-62
2022/04/03 03:26:12;;;;;;;1.67;1.33;;;23.50;58.10;;;;;;4931561;29;20679;-63
2022/04/03 03:28:43;;;;;;;1.60;1.35;;;23.50;58.10;;;;;;4931342;29;20219;-61
2022/04/03 03:31:13;;;;;;;2.00;1.40;;;23.50;58.00;;;;;;4931104;29;20203;-64
2022/04/03 03:33:44;;;;;;;1.67;1.38;;;23.60;58.00;;;;;;4931371;29;20283;-60
2022/04/03 03:36:14;;;;;;;2.05;1.30;;;23.60;57.90;;;;;;4931544;29;20756;-59
2022/04/03 03:38:45;;;;;;;2.15;1.30;;;23.60;57.90;;;;;;4931660;29;20307;-59
2022/04/03 03:41:17;;;;;;;2.67;1.60;;;23.60;57.90;;;;;;4931758;29;20220;-61
2022/04/03 03:43:48;;;;;;;1.63;1.40;;;23.70;57.90;;;;;;4931304;29;20291;-61
2022/04/03 03:46:18;;;;;;;1.52;1.20;;;23.70;57.80;;;;;;4931267;29;20196;-60
2022/04/03 03:48:48;;;;;;;1.17;1.08;;;23.70;57.70;;;;;;4930702;29;20294;-62
2022/04/03 03:51:19;;;;;;;1.77;1.35;;;23.80;57.80;;;;;;4930512;29;20306;-60
2022/04/03 03:53:49;;;;;;;1.77;1.30;;;23.80;57.70;;;;;;4931708;29;20206;-63
2022/04/03 04:04:23;;;;;;;2.30;1.40;;;23.90;57.50;;;;;;5449130;23;20548;-60
2022/04/03 04:06:55;;;;;;;1.83;1.50;;;23.90;57.60;;;;;;4949405;28;20604;-59
2022/04/03 04:09:26;;;;;;;1.52;1.23;;;23.90;58.10;;;;;;4950262;28;20298;-59
2022/04/03 04:11:56;;;;;;;1.27;1.17;;;23.90;57.50;;;;;;4950836;28;20730;-59
2022/04/03 04:14:27;;;;;;;1.77;1.27;;;24.00;57.50;;;;;;4954211;28;20281;-60
2022/04/03 04:16:57;;;;;;;1.58;1.10;;;24.00;57.40;;;;;;4953959;29;20205;-60
2022/04/03 04:19:30;;;;;;;2.17;1.38;;;24.00;57.40;;;;;;4953808;28;20302;-59
2022/04/03 04:22:00;;;;;;;2.08;1.45;;;24.00;57.30;;;;;;4953585;28;20219;-60
2022/04/03 04:24:31;;;;;;;1.27;1.00;;;24.00;57.20;;;;;;4953516;28;20195;-59
2022/04/03 04:27:02;;;;;;;2.13;1.25;;;24.10;57.10;;;;;;4953657;28;20283;-59
2022/04/03 04:29:32;;;;;;;1.17;1.08;;;24.10;57.10;;;;;;4953359;28;20710;-60
2022/04/03 04:32:02;;;;;;;1.38;1.27;;;24.10;57.00;;;;;;4953605;28;20230;-60
2022/04/03 04:34:35;;;;;;;1.30;1.20;;;24.20;57.00;;;;;;4953517;28;20278;-60
2022/04/03 04:37:05;;;;;;;1.50;1.40;;;24.20;57.00;;;;;;4953362;28;20651;-60
2022/04/03 04:39:36;;;;;;;1.63;1.25;;;24.30;57.00;;;;;;4954047;28;20246;-59
2022/04/03 04:42:07;;;;;;;1.65;1.30;;;24.30;57.00;;;;;;4953607;28;20241;-59
2022/04/03 04:44:37;;;;;;;1.83;1.40;;;24.30;56.80;;;;;;4953896;28;20280;-60
2022/04/03 04:47:08;;;;;;;1.75;1.40;;;24.30;56.80;;;;;;4953342;28;20285;-61
2022/04/03 04:49:41;;;;;;;1.70;1.25;;;24.30;56.70;;;;;;4953744;28;20310;-60
2022/04/03 04:52:11;;;;;;;1.38;1.23;;;24.30;56.70;;;;;;4953127;28;20221;-59
2022/04/03 04:54:42;;;;;;;1.55;1.42;;;24.40;56.70;;;;;;4953639;28;20235;-59
2022/04/03 04:57:12;;;;;;;1.63;1.50;;;24.40;56.60;;;;;;4989779;23;20661;-62
2022/04/03 04:59:42;;;;;;;1.77;1.38;;;24.40;56.60;;;;;;4973658;28;20297;-64
2022/04/03 05:02:13;;;;;;;1.73;1.40;;;24.40;56.50;;;;;;4970427;28;20313;-62
2022/04/03 05:04:45;;;;;;;1.40;1.30;;;24.40;56.50;;;;;;4972252;28;20277;-62
2022/04/03 05:07:16;;;;;;;1.40;1.30;;;24.40;57.10;;;;;;4969780;28;20283;-62
2022/04/03 05:09:47;;;;;;;3.03;1.60;;;24.50;56.40;;;;;;4972529;28;20232;-61
2022/04/03 05:12:18;;;;;;;1.70;1.58;;;24.50;56.40;;;;;;4972580;28;20277;-62
2022/04/03 05:14:49;;;;;;;1.52;1.42;;;24.50;56.30;;;;;;4971717;28;20190;-61
2022/04/03 05:17:20;;;;;;;1.80;1.70;;;24.40;56.40;;;;;;4972449;28;20281;-62
2022/04/03 05:19:54;;;;;;;2.65;2.08;;;24.50;56.30;;;;;;4972615;28;20194;-58
2022/04/03 05:22:26;;;;;;;2.78;2.58;;;24.50;56.30;;;;;;4971748;28;20348;-65
2022/04/03 05:24:56;;;;;;;5.57;4.60;;;24.50;56.30;;;;;;4971568;28;20200;-63
2022/04/03 05:27:27;;;;;;;4.47;4.07;;;24.50;56.20;;;;;;4971655;28;20201;-60
2022/04/03 05:29:57;;;;;;;5.28;4.63;;;24.50;56.30;;;;;;4972087;28;20237;-62
2022/04/03 05:32:31;;;;;;;6.03;5.43;;;24.50;56.10;;;;;;4971438;28;20635;-67
2022/04/03 05:35:04;;;;;;;4.95;4.45;;;24.50;56.00;;;;;;4972197;28;20212;-63
2022/04/03 05:37:34;;;;;;;5.80;5.15;;;24.50;56.00;;;;;;4971449;28;20194;-62
2022/04/03 05:40:06;;;;;;;5.63;5.22;;;24.50;56.00;;;;;;4972077;28;20738;-65
2022/04/03 05:42:37;;;;;;;4.75;4.35;;;24.50;56.00;;;;;;4971649;28;20701;-65
2022/04/03 05:45:09;;;;;;;5.40;4.90;;;24.50;56.00;;;;;;4971694;28;20618;-63
2022/04/03 05:47:40;;;;;;;4.55;4.15;;;24.50;56.10;;;;;;4971546;28;20218;-58
2022/04/03 05:50:14;;;;;;;5.80;5.22;;;24.40;56.10;;;;;;4971341;28;20213;-64
2022/04/03 05:52:46;;;;;;;5.15;4.68;;;24.40;56.00;;;;;;4971494;28;20194;-62
2022/04/03 05:55:18;;;;;;;5.05;4.65;;;24.40;56.00;;;;;;4971936;28;20210;-62
2022/04/03 05:57:50;;;;;;;5.88;4.47;;;24.40;56.10;;;;;;4965204;23;20230;-62
2022/04/03 06:00:22;;;;;;;4.85;4.45;;;24.40;56.10;;;;;;4951885;28;20191;-61
2022/04/03 06:02:54;;;;;;;5.32;4.90;;;24.40;56.10;;;;;;4950084;28;20223;-57
2022/04/03 06:05:28;;;;;;;4.57;4.10;;;24.30;56.10;;;;;;4951897;28;20199;-61
2022/04/03 06:07:59;;;;;;;4.68;4.18;;;24.40;56.20;;;;;;4952409;28;20305;-59
2022/04/03 06:10:30;;;;;;;4.70;4.30;;;24.30;56.10;;;;;;4952202;28;20203;-61
2022/04/03 06:13:02;;;;;;;4.95;4.53;;;24.30;56.10;;;;;;4952233;29;20199;-58
2022/04/03 06:15:33;;;;;;;4.90;4.40;;;24.30;56.10;;;;;;4952168;28;20448;-63
2022/04/03 06:18:05;;;;;;;4.80;4.40;;;24.30;56.10;;;;;;4953082;28;20223;-62
2022/04/03 06:20:37;;;;;;;4.47;4.07;;;24.30;56.10;;;;;;4953264;28;20273;-61
2022/04/03 06:23:13;;;;;;;4.30;3.90;;;24.30;56.10;;;;;;4953647;28;20222;-62
2022/04/03 06:25:44;;;;;;;4.25;3.88;;;24.30;56.00;;;;;;4953118;28;20285;-62
2022/04/03 06:28:14;;;;;;;4.50;4.10;;;24.30;56.00;;;;;;4953253;28;20226;-58
2022/04/03 06:30:45;;;;;;;4.88;4.40;;;24.20;56.00;;;;;;4953293;28;20887;-61
2022/04/03 06:33:16;;;;;;;4.00;3.60;;;24.20;56.00;;;;;;4952110;28;20290;-62
2022/04/03 06:35:49;;;;;;;3.83;3.42;;;24.20;56.00;;;;;;4951469;28;20291;-62
2022/04/03 06:38:19;;;;;;;3.88;3.58;;;24.20;56.60;;;;;;4953018;28;20302;-61
2022/04/03 06:40:52;;;;;;;3.88;3.58;;;24.10;56.00;;;;;;4953062;28;20321;-61
2022/04/03 06:43:23;;;;;;;4.68;4.18;;;24.10;56.00;;;;;;4952464;28;20233;-57
2022/04/03 06:45:55;;;;;;;3.92;3.63;;;24.10;56.10;;;;;;4952790;28;20780;-62
2022/04/03 06:48:26;;;;;;;4.45;4.05;;;24.10;56.10;;;;;;4952621;28;20394;-62
2022/04/03 06:50:58;;;;;;;4.10;3.72;;;24.00;56.10;;;;;;4953092;28;20314;-60
2022/04/03 06:53:29;;;;;;;4.03;3.72;;;24.00;56.10;;;;;;4952877;28;20203;-59
2022/04/03 06:55:59;;;;;;;4.05;3.75;;;24.00;56.10;;;;;;4968983;23;20213;-61
2022/04/03 06:58:30;;;;;;;3.63;3.33;;;24.00;56.20;;;;;;4963625;28;20226;-59
2022/04/03 07:01:00;;;;;;;4.30;3.90;;;24.00;56.20;;;;;;4953022;28;20249;-60
2022/04/03 07:03:31;;;;;;;4.03;3.72;;;23.90;56.20;;;;;;4933272;29;20317;-60
2022/04/03 07:06:04;;;;;;;3.75;3.45;;;23.90;56.30;;;;;;4931815;29;20200;-59
2022/04/03 07:08:35;;;;;;;3.85;3.55;;;23.90;56.30;;;;;;4933446;29;20761;-61
2022/04/03 07:11:06;;;;;;;3.80;3.50;;;23.80;56.30;;;;;;4933561;29;20203;-60
2022/04/03 07:13:36;;;;;;;3.83;3.53;;;23.80;56.30;;;;;;4933592;29;20831;-62
2022/04/03 07:16:07;;;;;;;4.55;3.30;;;23.80;56.30;;;;;;4933310;29;20634;-61
2022/04/03 07:18:39;;;;;;;4.13;3.78;;;23.80;56.30;;;;;;4941349;28;20223;-60
2022/04/03 07:21:11;;;;;;;4.10;3.45;;;23.80;56.30;;;;;;4933323;29;20196;-60
2022/04/03 07:23:42;;;;;;;4.07;3.75;;;23.70;56.20;;;;;;4933287;29;20228;-60
2022/04/03 07:26:12;;;;;;;4.20;3.80;;;23.70;56.20;;;;;;4933597;29;20199;-60
2022/04/03 07:28:43;;;;;;;3.33;3.13;;;23.70;56.20;;;;;;4933126;29;20477;-61
2022/04/03 07:31:13;;;;;;;3.70;3.40;;;23.70;56.30;;;;;;4933061;29;20595;-62
2022/04/03 07:33:44;;;;;;;3.80;3.50;;;23.70;56.30;;;;;;4943622;29;20634;-61
2022/04/03 07:36:16;;;;;;;3.83;3.47;;;23.60;56.30;;;;;;4952122;28;20321;-61
2022/04/03 07:38:47;;;;;;;3.70;3.40;;;23.60;56.40;;;;;;4951591;28;20306;-59
2022/04/03 07:41:17;;;;;;;3.58;3.28;;;23.60;56.40;;;;;;4952103;28;20209;-59
2022/04/03 07:43:47;;;;;;;3.80;3.50;;;23.50;56.40;;;;;;4952246;28;20222;-60
2022/04/03 07:46:18;;;;;;;5.05;4.22;;;23.50;56.50;;;;;;4951989;28;20198;-59
2022/04/03 07:48:48;;;;;;;4.22;3.83;;;23.50;56.50;;;;;;4951062;28;20221;-60
2022/04/03 07:51:21;;;;;;;4.38;3.72;;;23.50;56.50;;;;;;4952092;28;20282;-60
2022/04/03 07:53:53;;;;;;;4.13;3.72;;;23.50;56.60;;;;;;4952244;28;20258;-61
2022/04/03 07:56:23;;;;;;;3.60;3.30;;;23.40;56.60;;;;;;4964491;23;20586;-59
2022/04/03 07:58:57;;;;;;;3.95;3.55;;;23.40;56.60;;;;;;4939473;28;20234;-60
2022/04/03 08:01:28;;;;;;;3.60;3.30;;;23.40;56.60;;;;;;4932568;29;20384;-59
2022/04/03 08:03:58;;;;;;;5.13;3.47;;;23.40;56.60;;;;;;4931530;29;20230;-59
2022/04/03 08:06:30;;;;;;;3.47;3.20;;;23.40;56.60;;;;;;4932963;29;20200;-60
2022/04/03 08:09:01;;;;;;;4.03;3.63;;;23.30;56.60;;;;;;4932888;29;20302;-60
2022/04/03 08:11:31;;;;;;;3.47;3.17;;;23.30;56.60;;;;;;4932662;29;20290;-59
2022/04/03 08:14:02;;;;;;;3.50;3.20;;;23.30;56.60;;;;;;4932700;29;20286;-59
2022/04/03 08:16:32;;;;;;;3.42;3.13;;;23.30;56.70;;;;;;4932883;29;20282;-59
2022/04/03 08:19:04;;;;;;;3.58;3.28;;;23.30;56.70;;;;;;4932379;29;20830;-59
2022/04/03 08:21:36;;;;;;;3.33;3.03;;;23.20;56.60;;;;;;4932694;29;20210;-59
2022/04/03 08:24:07;;;;;;;3.53;3.22;;;23.20;56.70;;;;;;4932042;29;20238;-59
2022/04/03 08:26:38;;;;;;;3.35;3.05;;;23.20;56.70;;;;;;4932478;29;20667;-60
2022/04/03 08:29:08;;;;;;;3.55;3.25;;;23.10;56.70;;;;;;4932747;28;20246;-59
2022/04/03 08:31:39;;;;;;;3.83;3.10;;;23.10;56.70;;;;;;4932575;29;20596;-59
2022/04/03 08:34:09;;;;;;;3.70;3.40;;;23.10;56.80;;;;;;4932086;29;20195;-59
2022/04/03 08:36:41;;;;;;;3.33;3.08;;;23.10;56.80;;;;;;4932617;29;20207;-59
2022/04/03 08:39:12;;;;;;;3.45;3.20;;;23.10;56.80;;;;;;4932342;29;20310;-60
2022/04/03 08:41:42;;;;;;;3.60;3.30;;;23.10;56.80;;;;;;4932313;29;20399;-59
2022/04/03 08:44:13;;;;;;;3.40;3.10;;;23.10;56.80;;;;;;4932614;29;20318;-60
2022/04/03 08:46:47;;;;;;;3.30;3.03;;;23.00;56.80;;;;;;4932303;29;20287;-60
2022/04/03 08:49:19;;;;;;;3.75;3.45;;;23.00;56.80;;;;;;4931614;29;20314;-60
2022/04/03 08:51:53;;;;;;;3.58;3.10;;;23.00;56.90;;;;;;4932084;29;20196;-60
2022/04/03 08:54:23;;;;;;;3.30;3.00;;;23.00;56.90;;;;;;4932424;29;20290;-60
2022/04/03 08:56:54;;;;;;;3.70;3.40;;;23.00;56.90;;;;;;4932561;29;20295;-60
2022/04/03 08:59:24;;;;;;;3.20;2.80;;;23.00;56.90;;;;;;4929414;29;20310;-59
2022/04/03 09:01:56;;;;;;;3.20;2.90;;;23.00;56.90;;;;;;4934209;29;20287;-61
2022/04/03 09:04:30;;;;;;;3.35;3.05;;;22.90;57.00;;;;;;4933881;29;20314;-60
2022/04/03 09:07:03;;;;;;;3.28;2.95;;;22.90;57.00;;;;;;4933970;29;20226;-61
2022/04/03 09:09:33;;;;;;;3.45;3.15;;;22.90;57.10;;;;;;4933832;29;20238;-60
2022/04/03 09:12:11;;;;;;;3.55;3.25;;;22.90;57.10;;;;;;4934089;29;20200;-60
2022/04/03 09:14:49;;;;;;;3.22;2.95;;;22.90;57.10;;;;;;4933409;29;20232;-59
2022/04/03 09:17:37;;;;;;;2.83;2.63;;;22.90;57.10;;;;;;4934397;29;20711;-59
2022/04/03 09:20:09;;;;;;;4.32;3.50;;;22.80;57.10;;;;;;4933536;29;20374;-61
2022/04/03 09:22:42;;;;;;;3.75;3.25;;;22.80;57.10;;;;;;4933779;29;20318;-60
2022/04/03 09:25:15;;;;;;;3.25;2.92;;;22.80;57.10;;;;;;4933305;29;20283;-60
2022/04/03 09:27:51;;;;;;;4.15;3.35;;;22.80;57.10;;;;;;4933917;29;20238;-60
2022/04/03 09:30:22;;;;;;;3.40;3.08;;;22.80;57.10;;;;;;4933433;29;20231;-60
2022/04/03 09:32:54;;;;;;;3.13;2.92;;;22.80;57.20;;;;;;4933083;29;20282;-60
2022/04/03 09:35:27;;;;;;;3.05;2.75;;;22.80;57.20;;;;;;4932602;29;20286;-61
2022/04/03 09:38:17;;;;;;;3.00;2.70;;;22.80;57.20;;;;;;4933501;29;20222;-61
2022/04/03 09:40:49;;;;;;;3.50;3.20;;;22.70;57.10;;;;;;4933701;29;20200;-63
2022/04/03 09:43:21;;;;;;;3.45;2.90;;;22.80;57.20;;;;;;4933578;29;20230;-63
2022/04/03 09:45:54;;;;;;;3.30;3.00;;;22.70;57.10;;;;;;4933455;29;20202;-61
2022/04/03 09:48:29;;;;;;;3.10;2.90;;;22.70;57.20;;;;;;4933026;29;20262;-63
2022/04/03 09:51:04;;;;;;;3.00;2.70;;;22.70;57.20;;;;;;4933680;29;20201;-62
2022/04/03 09:53:46;;;;;;;3.25;2.85;;;22.60;57.10;;;;;;4933736;29;20254;-62
2022/04/03 09:56:28;;;;;;;3.25;2.92;;;22.60;57.20;;;;;;4949569;23;20321;-57
2022/04/03 09:59:01;;;;;;;3.47;3.17;;;22.60;57.20;;;;;;4968846;28;20214;-57
2022/04/03 10:01:34;;;;;;;3.20;2.90;;;22.60;57.20;;;;;;4971463;28;20623;-56
2022/04/03 10:04:05;;;;;;;3.00;2.80;;;22.60;57.30;;;;;;4970715;28;20254;-56
2022/04/03 10:06:36;;;;;;;2.92;2.67;;;22.60;57.20;;;;;;4971780;28;20233;-58
2022/04/03 10:09:11;;;;;;;2.97;2.78;;;22.50;57.20;;;;;;4970623;28;20313;-58
2022/04/03 10:11:42;;;;;;;3.25;2.80;;;22.50;57.30;;;;;;4971539;28;20206;-59
2022/04/03 10:14:13;;;;;;;3.22;2.90;;;22.50;57.30;;;;;;4971354;28;20713;-56
2022/04/03 10:16:44;;;;;;;3.30;2.97;;;22.50;57.30;;;;;;4970730;28;20198;-56
2022/04/03 10:19:15;;;;;;;3.30;3.00;;;22.50;57.30;;;;;;4971677;28;20218;-60
2022/04/03 10:21:48;;;;;;;3.58;2.75;;;22.50;57.30;;;;;;4971479;28;20640;-61
2022/04/03 10:24:23;;;;;;;2.90;2.60;;;22.50;57.40;;;;;;4971059;28;20233;-62
2022/04/03 10:27:07;;;;;;;3.20;2.80;;;22.50;57.40;;;;;;4965754;28;20202;-62
2022/04/03 10:29:40;;;;;;;3.28;2.72;;;22.50;57.40;;;;;;4969648;28;20226;-60
2022/04/03 10:32:11;;;;;;;2.90;2.70;;;22.40;57.30;;;;;;4970201;28;20202;-62
2022/04/03 10:34:51;;;;;;;3.25;2.70;;;22.40;57.30;;;;;;4970810;28;20201;-60
2022/04/03 10:37:32;;;;;;;3.55;2.97;;;22.40;57.30;;;;;;4971255;28;20204;-58
2022/04/03 10:40:10;;;;;;;3.00;2.70;;;22.40;57.30;;;;;;4971256;28;20190;-57
2022/04/03 10:42:53;;;;;;;2.83;2.63;;;22.40;57.30;;;;;;4970570;28;20598;-59
2022/04/03 10:45:28;;;;;;;3.00;2.67;;;22.40;57.40;;;;;;4970721;28;20793;-60
2022/04/03 10:48:28;;;;;;;3.05;2.70;;;22.30;57.40;;;;;;4970077;28;20316;-57
2022/04/03 10:51:26;;;;;;;3.00;2.67;;;22.30;57.40;;;;;;4970797;28;20647;-58
2022/04/03 10:54:04;;;;;;;3.10;2.80;;;22.30;57.40;;;;;;4966031;28;20201;-59
2022/04/03 10:56:36;;;;;;;3.10;2.80;;;22.30;57.40;;;;;;4969164;28;20297;-59
2022/04/03 10:59:13;;;;;;;2.80;2.60;;;22.30;57.50;;;;;;4969744;28;20222;-60
2022/04/03 11:01:45;;;;;;;3.08;2.80;;;22.30;57.50;;;;;;4969320;28;20297;-60
2022/04/03 11:04:17;;;;;;;2.83;2.58;;;22.30;57.50;;;;;;4970073;28;20608;-59
2022/04/03 11:06:50;;;;;;;2.65;2.45;;;22.20;57.50;;;;;;4970337;28;20204;-61
2022/04/03 11:09:27;;;;;;;2.60;2.40;;;22.20;57.60;;;;;;4970742;28;20214;-60
2022/04/03 11:12:03;;;;;;;3.38;2.70;;;22.20;57.60;;;;;;4968989;28;20285;-62
2022/04/03 11:15:00;;;;;;;3.28;2.67;;;22.20;57.60;;;;;;4970122;28;20264;-61
2022/04/03 11:17:52;;;;;;;3.03;2.72;;;22.20;57.60;;;;;;4969900;28;20712;-58
2022/04/03 11:20:36;;;;;;;2.72;2.53;;;22.20;57.60;;;;;;4969709;28;20285;-60
2022/04/03 11:23:09;;;;;;;2.55;2.35;;;22.20;57.60;;;;;;4969676;28;20896;-60
2022/04/03 11:25:40;;;;;;;2.53;2.33;;;22.20;57.60;;;;;;4970435;28;20260;-62
2022/04/03 11:28:13;;;;;;;2.90;2.60;;;22.20;57.60;;;;;;4954708;28;20223;-56
2022/04/03 11:30:44;;;;;;;2.83;2.55;;;22.20;57.60;;;;;;4953706;28;20238;-61
2022/04/03 11:33:15;;;;;;;3.22;2.50;;;22.20;57.60;;;;;;4952140;28;20286;-57
2022/04/03 11:35:46;;;;;;;3.10;2.63;;;22.10;57.60;;;;;;4952272;28;20287;-58
2022/04/03 11:38:17;;;;;;;2.65;2.45;;;22.10;57.70;;;;;;4952292;28;20289;-59
2022/04/03 11:40:49;;;;;;;2.28;2.08;;;22.10;57.70;;;;;;4952848;28;20290;-63
2022/04/03 11:43:22;;;;;;;2.83;2.55;;;22.10;57.70;;;;;;4951901;28;20203;-59
2022/04/03 11:45:57;;;;;;;2.78;2.47;;;22.10;57.70;;;;;;4952550;28;20198;-64
2022/04/03 11:48:29;;;;;;;2.78;2.53;;;22.10;57.70;;;;;;4951749;28;20709;-62
2022/04/03 11:51:13;;;;;;;3.42;2.45;;;22.10;57.90;;;;;;4951834;28;20282;-60
2022/04/03 11:53:44;;;;;;;3.05;2.70;;;22.00;57.80;;;;;;4951882;28;20190;-61
2022/04/03 11:56:16;;;;;;;2.60;2.40;;;22.00;58.40;;;;;;4952310;28;20293;-64
2022/04/03 11:58:50;;;;;;;2.70;2.47;;;22.00;57.90;;;;;;4951816;28;20229;-64
2022/04/03 12:01:28;;;;;;;2.95;2.50;;;22.00;57.90;;;;;;4952025;28;20214;-62
2022/04/03 12:04:08;;;;;;;2.78;2.30;;;22.00;57.90;;;;;;4951124;28;20223;-66
2022/04/03 12:06:39;;;;;;;2.55;2.35;;;22.00;57.90;;;;;;4951555;28;20209;-63
2022/04/03 12:09:10;;;;;;;3.50;2.42;;;22.00;57.90;;;;;;4951441;28;20976;-59
2022/04/03 12:11:42;;;;;;;4.10;2.40;;;22.00;57.90;;;;;;4951909;28;20579;-61
2022/04/03 12:14:23;;;;;;;2.35;2.15;;;22.00;57.90;;;;;;4951888;28;20289;-65
2022/04/03 12:17:01;;;;;;;2.72;2.53;;;22.00;57.90;;;;;;4952123;28;20298;-65
2022/04/03 12:19:36;;;;;;;2.58;2.38;;;22.00;57.90;;;;;;4951754;28;20262;-67
2022/04/03 12:22:08;;;;;;;2.25;1.98;;;22.00;57.90;;;;;;4951831;28;20198;-66
2022/04/03 12:24:39;;;;;;;2.63;2.42;;;21.90;57.80;;;;;;4951152;28;20643;-65
2022/04/03 12:27:19;;;;;;;2.63;2.40;;;21.90;57.90;;;;;;4951155;28;20265;-65
2022/04/03 12:29:54;;;;;;;2.55;2.35;;;21.90;57.90;;;;;;4951668;28;20203;-66
2022/04/03 12:32:37;;;;;;;2.20;2.00;;;21.90;57.90;;;;;;4951414;28;20212;-62
2022/04/03 12:35:09;;;;;;;2.28;2.08;;;21.90;57.90;;;;;;4954454;28;20210;-62
2022/04/03 12:37:41;;;;;;;2.53;2.28;;;21.90;58.00;;;;;;4955366;28;20198;-62
2022/04/03 12:40:12;;;;;;;2.72;2.53;;;21.90;58.00;;;;;;4955822;28;20203;-65
2022/04/03 12:42:44;;;;;;;2.40;2.20;;;21.90;58.00;;;;;;4954798;28;20218;-65
2022/04/03 12:45:20;;;;;;;2.85;2.15;;;21.80;58.00;;;;;;4954853;28;20226;-62
2022/04/03 12:47:52;;;;;;;2.13;1.92;;;21.80;58.60;;;;;;4955133;28;20250;-63
2022/04/03 12:50:24;;;;;;;2.42;2.22;;;21.90;58.10;;;;;;4955211;28;20202;-63
2022/04/03 12:53:00;;;;;;;2.40;2.20;;;21.80;58.00;;;;;;4954440;28;20209;-64
2022/04/03 12:55:41;;;;;;;2.75;2.40;;;21.80;58.00;;;;;;4955199;28;20206;-65
2022/04/03 12:58:30;;;;;;;2.55;2.22;;;21.90;58.00;;;;;;4955175;28;20236;-57
2022/04/03 13:01:13;;;;;;;2.30;2.10;;;21.80;58.00;;;;;;4954773;28;20202;-63
2022/04/03 13:03:46;;;;;;;3.10;2.47;;;21.80;58.00;;;;;;4954948;28;20658;-61
2022/04/03 13:06:17;;;;;;;2.30;2.10;;;21.80;58.00;;;;;;4954815;28;20206;-63
2022/04/03 13:08:50;;;;;;;2.40;2.20;;;21.80;58.00;;;;;;4954395;28;20260;-60
2022/04/03 13:11:36;;;;;;;2.22;2.03;;;21.80;58.00;;;;;;4954338;29;20233;-65
2022/04/03 13:14:22;;;;;;;2.40;2.20;;;21.80;58.00;;;;;;4954173;28;20641;-63
2022/04/03 13:16:56;;;;;;;2.25;2.05;;;21.80;58.10;;;;;;4954212;28;20203;-59
2022/04/03 13:19:27;;;;;;;2.40;2.20;;;21.70;58.00;;;;;;4954320;28;20232;-60
2022/04/03 13:21:58;;;;;;;2.78;2.40;;;21.70;58.00;;;;;;4954679;28;20608;-63
2022/04/03 13:24:30;;;;;;;2.55;2.35;;;21.70;58.10;;;;;;4954866;28;20234;-60
2022/04/03 13:27:01;;;;;;;2.53;2.33;;;21.70;58.10;;;;;;4954424;28;20287;-64